Huntington, Connecticut
Current Conditions -  °F | °C
As of 5:01 PM on Thursday 27 Nov 2014 (Local Time) from KBDR Reporting Station
Overcast Overcast  
Wind Chill: 32°   Ceiling: 8500
Heat Index: 36°   Visibility: 10mi
Dew Point: 30°   Wind: 5mph
Humidity: 79%   Direction: 330°NNW
Pressure: 30"   Gusts: NA
Location:  41.3059°N, 73.1393°W
Report Text: KBDR 272201Z 33004KT 10SM FEW018 SCT023 OVC085 02/M01 A3000 RMK AO2 CIG 019 R29 SE T00221011
Loading
Personal Weather Stations






























Interactive Weather Map New forecast layout! Learn more

10-Day Weather Forecast

Advertisements
Track Severe Weather on mobile